Time;durP1;ratioP1;P1;durP2;ratioP2;P2;SDS_P1;SDS_P2;PMS_P1;PMS_P2;Temp;Humidity;BMP_temperature;BMP_pressure;BME280_temperature;BME280_humidity;BME280_pressure;Samples;Min_cycle;Max_cycle;Signal;HPM_P1;HPM_P2
2022/06/13 00:01:30;;;;;;;10.20;2.67;;;16.90;99.90;;;;;;4943423;28;20559;-85
2022/06/13 00:04:21;;;;;;;12.25;2.55;;;16.90;99.90;;;;;;4940947;28;20043;-85
2022/06/13 00:06:47;;;;;;;13.55;2.95;;;16.90;99.90;;;;;;4966516;28;20364;-85
2022/06/13 00:09:13;;;;;;;17.70;3.45;;;16.90;99.90;;;;;;4940254;28;20027;-85
2022/06/13 00:11:43;;;;;;;16.98;2.90;;;16.90;99.90;;;;;;4950444;29;20111;-85
2022/06/13 00:14:09;;;;;;;10.70;2.40;;;16.80;99.90;;;;;;4954634;28;20102;-85
2022/06/13 00:16:34;;;;;;;12.18;3.10;;;16.80;99.90;;;;;;4938257;29;20114;-86
2022/06/13 00:19:07;;;;;;;11.65;3.20;;;16.80;99.90;;;;;;4950736;28;20422;-86
2022/06/13 00:21:36;;;;;;;14.13;2.58;;;16.80;99.90;;;;;;4938329;29;20058;-86
2022/06/13 00:24:20;;;;;;;12.55;3.10;;;16.80;99.90;;;;;;4950635;28;20050;-85
2022/06/13 00:26:45;;;;;;;13.18;3.30;;;16.80;99.90;;;;;;4955353;28;20034;-85
2022/06/13 00:29:36;;;;;;;14.32;3.28;;;16.80;99.90;;;;;;4955226;28;20038;-85
2022/06/13 00:32:01;;;;;;;15.82;3.17;;;16.70;99.90;;;;;;4946155;28;20544;-85
2022/06/13 00:34:27;;;;;;;11.75;2.92;;;16.70;99.90;;;;;;4938366;28;20121;-85
2022/06/13 00:36:54;;;;;;;10.90;3.22;;;16.60;99.90;;;;;;4943107;29;20055;-85
2022/06/13 00:39:19;;;;;;;18.10;2.90;;;16.60;99.90;;;;;;4949445;28;20027;-85
2022/06/13 00:41:46;;;;;;;18.23;3.35;;;16.60;99.90;;;;;;4954825;28;20496;-85
2022/06/13 00:44:26;;;;;;;16.60;3.63;;;16.60;99.90;;;;;;4958641;28;20027;-86
2022/06/13 00:46:52;;;;;;;8.15;2.90;;;16.50;99.90;;;;;;4927897;29;20035;-86
2022/06/13 00:49:44;;;;;;;17.33;3.42;;;16.50;99.90;;;;;;4954401;29;20019;-85
2022/06/13 00:52:42;;;;;;;15.23;3.58;;;16.50;99.90;;;;;;4935628;28;20023;-86
2022/06/13 00:55:12;;;;;;;21.60;4.00;;;16.50;99.90;;;;;;4951252;28;20051;-85
2022/06/13 00:57:38;;;;;;;15.68;3.85;;;16.50;99.90;;;;;;4954707;28;20086;-85
2022/06/13 01:00:19;;;;;;;17.35;4.22;;;16.40;99.90;;;;;;4936368;29;20422;-85
2022/06/13 01:02:49;;;;;;;9.93;2.97;;;16.40;99.90;;;;;;4964764;28;20626;-85
2022/06/13 01:05:21;;;;;;;16.73;3.25;;;16.30;99.90;;;;;;4955911;28;20117;-85
2022/06/13 01:07:48;;;;;;;12.60;3.25;;;16.30;99.90;;;;;;4960913;28;20028;-85
2022/06/13 01:13:15;;;;;;;19.85;3.25;;;16.20;99.90;;;;;;4947535;28;20038;-85
2022/06/13 01:15:52;;;;;;;16.77;3.88;;;16.10;99.90;;;;;;4949204;28;20476;-86
2022/06/13 01:18:43;;;;;;;13.02;3.25;;;16.00;99.90;;;;;;4948938;28;20055;-85
2022/06/13 01:21:24;;;;;;;12.80;3.70;;;15.90;99.90;;;;;;4956886;28;20102;-85
2022/06/13 01:24:17;;;;;;;19.10;3.58;;;15.90;99.90;;;;;;4965998;28;20031;-85
2022/06/13 01:27:18;;;;;;;10.45;3.05;;;15.80;99.90;;;;;;4963364;28;20403;-85
2022/06/13 01:30:08;;;;;;;17.77;3.30;;;15.70;99.90;;;;;;4960069;28;20395;-85
2022/06/13 01:32:52;;;;;;;10.45;3.33;;;15.70;99.90;;;;;;4962790;28;20491;-85
2022/06/13 01:35:41;;;;;;;12.40;3.15;;;15.60;99.90;;;;;;4958830;28;20023;-85
2022/06/13 01:38:29;;;;;;;13.98;3.63;;;15.50;99.90;;;;;;4961571;28;20509;-85
2022/06/13 01:41:11;;;;;;;18.10;3.65;;;15.50;99.90;;;;;;4942786;29;20024;-87
2022/06/13 01:43:50;;;;;;;13.68;3.65;;;15.40;99.90;;;;;;4956622;28;20027;-85
2022/06/13 01:46:33;;;;;;;15.52;3.53;;;15.40;99.90;;;;;;4969332;28;20491;-85
2022/06/13 01:49:10;;;;;;;11.68;3.33;;;15.30;99.90;;;;;;4957612;28;20118;-85
2022/06/13 01:52:18;;;;;;;10.05;3.50;;;15.30;99.90;;;;;;4918728;29;20032;-85
2022/06/13 01:54:52;;;;;;;16.98;4.38;;;15.20;99.90;;;;;;4933282;29;20130;-85
2022/06/13 01:57:24;;;;;;;12.27;3.63;;;15.20;99.90;;;;;;4937598;28;20118;-85
2022/06/13 02:00:11;;;;;;;20.38;4.47;;;15.20;99.90;;;;;;4969820;28;20368;-85
2022/06/13 02:03:28;;;;;;;15.77;3.47;;;15.10;99.90;;;;;;4945238;29;20048;-84
2022/06/13 02:06:26;;;;;;;10.68;4.10;;;15.10;99.90;;;;;;4918070;29;20122;-84
2022/06/13 02:09:05;;;;;;;13.32;4.55;;;15.10;99.90;;;;;;4947678;28;20042;-85
2022/06/13 02:11:42;;;;;;;16.48;4.90;;;15.00;99.90;;;;;;4954258;28;20031;-84
2022/06/13 02:14:40;;;;;;;15.40;4.70;;;15.00;99.90;;;;;;4953792;29;20020;-84
2022/06/13 02:17:17;;;;;;;17.20;4.22;;;14.90;99.90;;;;;;4917773;29;20466;-84
2022/06/13 02:20:24;;;;;;;9.77;3.03;;;14.90;99.90;;;;;;4933694;29;20023;-85
2022/06/13 02:22:55;;;;;;;;;;;14.80;99.90;;;;;;4945835;28;20130;-85
2022/06/13 02:25:34;;;;;;;12.27;3.70;;;14.80;99.90;;;;;;4958164;28;19914;-93
2022/06/13 02:28:23;;;;;;;9.93;3.28;;;14.80;99.90;;;;;;4941518;29;20062;-92
2022/06/13 02:30:57;;;;;;;10.18;3.30;;;14.70;99.90;;;;;;4941568;29;20042;-91
2022/06/13 02:33:26;;;;;;;12.60;3.53;;;14.60;99.90;;;;;;4942822;28;20091;-92
2022/06/13 02:36:30;;;;;;;14.70;4.60;;;14.60;99.90;;;;;;4935664;29;20408;-92
2022/06/13 02:39:17;;;;;;;19.10;3.83;;;14.50;99.90;;;;;;4922441;29;20483;-93
2022/06/13 02:41:51;;;;;;;13.48;4.57;;;14.40;99.90;;;;;;4922354;29;20034;-93
2022/06/13 02:45:02;;;;;;;20.92;4.78;;;14.40;99.90;;;;;;4922375;29;20036;-92
2022/06/13 02:48:21;;;;;;;11.32;4.32;;;14.30;99.90;;;;;;4930890;29;20111;-92
2022/06/13 02:53:59;;;;;;;18.10;4.55;;;14.30;99.90;;;;;;4958072;29;20042;-92
2022/06/13 03:00:22;;;;;;;17.52;3.92;;;14.30;99.90;;;;;;4958062;29;20034;-92
2022/06/13 03:03:33;;;;;;;12.95;4.32;;;14.30;99.90;;;;;;4957908;29;20407;-91
2022/06/13 03:06:08;;;;;;;11.95;4.13;;;14.30;99.90;;;;;;4940085;29;20398;-92
2022/06/13 03:08:55;;;;;;;19.73;4.40;;;14.30;99.90;;;;;;4940686;29;20122;-92
2022/06/13 03:14:39;;;;;;;9.10;3.33;;;14.30;99.90;;;;;;4958139;28;20054;-92
2022/06/13 03:17:33;;;;;;;8.65;3.42;;;14.30;99.90;;;;;;4940325;29;20023;-92
2022/06/13 03:20:20;;;;;;;12.38;3.85;;;14.30;99.90;;;;;;4939440;28;20069;-92
2022/06/13 03:22:55;;;;;;;14.68;4.00;;;14.30;99.90;;;;;;4955284;29;20031;-91
2022/06/13 03:29:14;;;;;;;16.85;4.63;;;14.30;99.90;;;;;;4958909;28;20029;-93
2022/06/13 03:32:07;;;;;;;10.40;3.60;;;14.20;99.90;;;;;;4949002;29;20126;-92
2022/06/13 03:34:38;;;;;;;14.10;3.70;;;14.10;99.90;;;;;;4939492;29;20083;-92
2022/06/13 03:38:01;;;;;;;8.32;2.90;;;14.10;99.90;;;;;;4953025;29;20031;-92
2022/06/13 03:40:32;;;;;;;14.07;3.55;;;14.00;99.90;;;;;;4928369;29;20028;-90
2022/06/13 03:43:05;;;;;;;12.45;4.10;;;14.00;99.90;;;;;;4920946;29;20475;-90
2022/06/13 03:45:55;;;;;;;15.55;3.90;;;14.00;99.90;;;;;;4941268;28;20109;-90
2022/06/13 03:48:27;;;;;;;13.40;3.75;;;13.90;99.90;;;;;;4954280;29;20034;-91
2022/06/13 03:50:54;;;;;;;12.20;5.18;;;13.90;99.90;;;;;;4939883;29;20027;-90
2022/06/13 03:53:31;;;;;;;14.98;3.55;;;13.90;99.90;;;;;;4939678;29;20027;-90
2022/06/13 04:05:42;;;;;;;17.83;4.30;;;14.00;99.90;;;;;;4937713;29;20095;-90
2022/06/13 04:12:00;;;;;;;12.25;3.92;;;14.10;99.90;;;;;;4944934;28;20022;-92
2022/06/13 04:14:37;;;;;;;10.95;3.83;;;14.30;99.90;;;;;;4958444;28;20039;-91
2022/06/13 04:26:58;;;;;;;16.25;4.15;;;14.50;99.90;;;;;;4938905;29;20054;-90
2022/06/13 04:29:55;;;;;;;11.75;4.65;;;14.60;99.90;;;;;;4971064;28;20023;-89
2022/06/13 04:32:36;;;;;;;11.02;4.60;;;14.60;99.90;;;;;;4968849;28;20494;-89
2022/06/13 04:35:03;;;;;;;15.60;3.58;;;14.70;99.90;;;;;;4969740;28;20521;-89
2022/06/13 04:37:29;;;;;;;20.73;3.85;;;14.70;99.90;;;;;;4975192;28;20023;-89
2022/06/13 04:40:00;;;;;;;12.50;3.60;;;14.70;99.90;;;;;;4966120;28;20367;-84
2022/06/13 04:42:30;;;;;;;16.73;4.00;;;14.70;99.90;;;;;;4938558;28;20062;-84
2022/06/13 04:45:00;;;;;;;19.52;4.35;;;14.80;99.90;;;;;;4969410;28;20144;-84
2022/06/13 04:47:33;;;;;;;16.35;3.88;;;14.90;99.90;;;;;;4973095;28;20026;-84
2022/06/13 04:49:59;;;;;;;22.38;4.28;;;14.90;99.90;;;;;;4937867;29;20468;-84
2022/06/13 04:52:32;;;;;;;10.50;3.47;;;14.90;99.90;;;;;;4931872;29;20034;-84
2022/06/13 04:55:12;;;;;;;19.48;4.60;;;14.90;99.90;;;;;;4956269;28;20387;-84
2022/06/13 04:57:38;;;;;;;21.05;5.03;;;15.00;99.90;;;;;;4955370;28;20434;-84
2022/06/13 05:00:06;;;;;;;14.85;3.80;;;15.00;99.90;;;;;;4958763;28;20103;-85
2022/06/13 05:02:40;;;;;;;23.25;4.65;;;15.10;99.90;;;;;;4945412;28;20507;-85
2022/06/13 05:05:32;;;;;;;22.98;4.20;;;15.10;99.90;;;;;;4943208;28;20035;-85
2022/06/13 05:07:58;;;;;;;14.93;3.80;;;15.20;99.90;;;;;;4944193;29;20026;-84
2022/06/13 05:10:33;;;;;;;21.98;4.40;;;15.20;99.90;;;;;;4957751;28;20027;-84
2022/06/13 05:12:58;;;;;;;19.58;4.30;;;15.20;99.90;;;;;;4945198;28;20026;-85
2022/06/13 05:15:46;;;;;;;14.00;3.72;;;15.20;99.90;;;;;;4943167;28;20031;-84
2022/06/13 05:18:37;;;;;;;14.80;4.20;;;15.20;99.90;;;;;;4946069;29;20027;-84
2022/06/13 05:21:21;;;;;;;20.55;4.38;;;15.30;99.90;;;;;;4954285;29;20031;-83
2022/06/13 05:24:15;;;;;;;14.35;2.97;;;15.30;99.90;;;;;;4954348;29;20043;-83
2022/06/13 05:26:40;;;;;;;26.25;5.55;;;15.30;99.90;;;;;;4947876;29;20493;-83
2022/06/13 05:29:09;;;;;;;19.55;4.28;;;15.30;99.90;;;;;;4954716;29;20127;-83
2022/06/13 05:31:46;;;;;;;24.17;4.32;;;15.40;99.90;;;;;;4953882;28;20070;-84
2022/06/13 05:34:24;;;;;;;18.25;4.57;;;15.40;99.90;;;;;;4952976;29;20054;-83
2022/06/13 05:36:49;;;;;;;23.67;4.15;;;15.40;99.90;;;;;;4943366;29;20038;-84
2022/06/13 05:39:15;;;;;;;15.40;4.63;;;15.50;99.90;;;;;;4931303;29;20126;-84
2022/06/13 05:42:04;;;;;;;10.13;3.17;;;15.50;99.90;;;;;;4954232;29;20484;-83
2022/06/13 05:44:30;;;;;;;23.25;4.78;;;15.50;99.90;;;;;;4953890;29;20051;-84
2022/06/13 05:46:55;;;;;;;10.80;4.00;;;15.50;99.90;;;;;;4953831;29;20458;-83
2022/06/13 05:49:21;;;;;;;26.38;5.25;;;15.50;99.90;;;;;;4954114;29;20034;-84
2022/06/13 05:51:47;;;;;;;24.05;4.55;;;15.50;99.90;;;;;;4936800;29;20220;-83
2022/06/13 05:54:13;;;;;;;23.85;5.25;;;15.50;99.90;;;;;;4954070;29;20103;-83
2022/06/13 05:56:39;;;;;;;18.30;4.78;;;15.50;99.90;;;;;;4954065;28;20035;-83
2022/06/13 05:59:06;;;;;;;22.23;4.65;;;15.50;99.90;;;;;;4957408;29;20023;-84
2022/06/13 06:01:35;;;;;;;18.15;5.22;;;15.50;99.90;;;;;;4957215;29;20074;-83
2022/06/13 06:04:04;;;;;;;17.67;4.25;;;15.50;99.90;;;;;;4957708;29;20015;-83
2022/06/13 06:06:32;;;;;;;17.65;4.57;;;15.50;99.90;;;;;;4957650;29;20095;-83
2022/06/13 06:09:01;;;;;;;12.75;3.63;;;15.50;99.90;;;;;;4952256;29;20115;-83
2022/06/13 06:11:28;;;;;;;18.00;4.15;;;15.40;99.90;;;;;;4939260;29;20034;-84
2022/06/13 06:13:56;;;;;;;16.95;4.30;;;15.40;99.90;;;;;;4958626;28;20030;-83
2022/06/13 06:16:23;;;;;;;15.50;3.90;;;15.50;99.90;;;;;;4955190;28;20573;-84
2022/06/13 06:18:50;;;;;;;16.88;4.03;;;15.50;99.90;;;;;;4954517;29;20031;-84
2022/06/13 06:21:15;;;;;;;18.83;4.32;;;15.40;99.90;;;;;;4956569;28;20031;-84
2022/06/13 06:23:41;;;;;;;9.85;3.55;;;15.40;99.90;;;;;;4968140;28;20027;-83
2022/06/13 06:26:09;;;;;;;15.35;4.50;;;15.40;99.90;;;;;;4971236;28;20058;-84
2022/06/13 06:28:35;;;;;;;23.05;4.53;;;15.40;99.90;;;;;;4956281;28;20042;-84
2022/06/13 06:31:03;;;;;;;15.43;4.25;;;15.50;99.90;;;;;;4937619;28;20023;-83
2022/06/13 06:33:29;;;;;;;14.60;4.07;;;15.50;99.90;;;;;;4945187;29;20526;-84
2022/06/13 06:35:55;;;;;;;21.48;4.15;;;15.50;99.90;;;;;;4956855;29;20032;-83
2022/06/13 06:38:24;;;;;;;16.58;4.57;;;15.50;99.90;;;;;;4957229;29;20032;-83
2022/06/13 06:40:50;;;;;;;18.13;4.43;;;15.50;99.90;;;;;;4956846;29;20027;-83
2022/06/13 06:43:16;;;;;;;20.23;4.65;;;15.50;99.90;;;;;;4956856;29;20107;-84
2022/06/13 06:45:42;;;;;;;19.02;4.50;;;15.60;99.90;;;;;;4956496;29;20110;-83
2022/06/13 06:48:20;;;;;;;24.58;5.53;;;15.70;99.90;;;;;;4957049;29;20542;-84
2022/06/13 06:50:49;;;;;;;25.20;5.18;;;15.70;99.90;;;;;;4956993;29;20086;-84
2022/06/13 06:53:20;;;;;;;20.33;5.53;;;15.80;99.90;;;;;;4956901;29;20015;-84
2022/06/13 07:01:17;;;;;;;29.50;5.28;;;15.90;99.90;;;;;;4956284;29;20170;-84
2022/06/13 07:03:44;;;;;;;22.98;5.13;;;16.00;99.90;;;;;;4939347;29;20039;-84
2022/06/13 07:06:11;;;;;;;18.40;4.97;;;16.00;99.90;;;;;;4956533;29;20033;-84
2022/06/13 07:08:37;;;;;;;18.00;4.63;;;16.00;99.90;;;;;;4956051;28;20054;-84
2022/06/13 07:13:51;;;;;;;21.80;4.88;;;16.00;99.90;;;;;;4956848;29;20042;-84
2022/06/13 07:16:18;;;;;;;25.35;6.70;;;16.10;99.90;;;;;;4956217;29;20035;-84
2022/06/13 07:18:45;;;;;;;26.80;4.88;;;16.30;99.90;;;;;;4956336;29;20472;-84
2022/06/13 07:21:12;;;;;;;25.40;5.22;;;16.30;99.90;;;;;;4956522;29;20062;-84
2022/06/13 07:23:38;;;;;;;22.38;5.00;;;16.40;99.90;;;;;;4939034;29;20023;-84
2022/06/13 07:26:04;;;;;;;18.77;5.10;;;16.40;99.90;;;;;;4938998;29;20035;-84
2022/06/13 07:28:30;;;;;;;17.92;4.47;;;16.40;99.90;;;;;;4956159;29;20083;-83
2022/06/13 07:30:56;;;;;;;17.98;4.38;;;16.40;99.90;;;;;;4955763;29;20523;-84
2022/06/13 07:33:21;;;;;;;21.60;4.40;;;16.60;99.90;;;;;;4956216;29;20078;-83
2022/06/13 07:35:47;;;;;;;14.63;3.85;;;16.60;99.90;;;;;;4954766;29;20334;-83
2022/06/13 07:38:19;;;;;;;28.27;4.82;;;16.60;99.90;;;;;;4947458;28;20480;-84
2022/06/13 07:40:52;;;;;;;23.48;5.60;;;16.60;99.90;;;;;;4950533;29;20036;-84
2022/06/13 07:43:38;;;;;;;38.67;5.93;;;16.60;99.90;;;;;;4923708;29;20039;-84
2022/06/13 07:46:06;;;;;;;18.73;3.90;;;16.50;99.90;;;;;;4963097;28;20027;-83
2022/06/13 07:48:33;;;;;;;24.08;3.70;;;16.50;99.90;;;;;;4958316;28;20039;-84
2022/06/13 07:50:59;;;;;;;24.95;4.95;;;16.40;99.90;;;;;;4963769;28;20031;-84
2022/06/13 07:53:25;;;;;;;16.00;4.13;;;16.40;99.90;;;;;;4945719;28;20086;-83
2022/06/13 07:55:52;;;;;;;15.80;4.15;;;16.40;99.90;;;;;;4962590;28;20027;-84
2022/06/13 07:58:29;;;;;;;18.08;4.13;;;16.40;99.90;;;;;;4955263;28;20368;-84
2022/06/13 08:00:55;;;;;;;14.55;4.10;;;16.40;99.90;;;;;;4964752;28;20027;-83
2022/06/13 08:03:28;;;;;;;11.57;3.53;;;16.40;99.90;;;;;;4955369;29;20412;-85
2022/06/13 08:05:54;;;;;;;22.58;4.72;;;16.30;99.90;;;;;;4955376;29;20494;-83
2022/06/13 08:08:20;;;;;;;18.10;4.10;;;16.30;99.90;;;;;;4937815;29;20027;-83
2022/06/13 08:10:47;;;;;;;19.27;4.80;;;16.30;99.90;;;;;;4955385;29;20500;-83
2022/06/13 08:13:16;;;;;;;16.42;3.97;;;16.30;99.90;;;;;;4955334;29;20106;-83
2022/06/13 08:15:43;;;;;;;15.90;4.00;;;16.30;99.90;;;;;;4954708;29;20054;-83
2022/06/13 08:18:11;;;;;;;13.20;3.33;;;16.30;99.90;;;;;;4954387;28;20019;-83
2022/06/13 08:20:38;;;;;;;17.52;4.55;;;16.30;99.90;;;;;;4950314;28;20041;-84
2022/06/13 08:23:06;;;;;;;16.10;3.63;;;16.20;99.90;;;;;;4937720;28;20090;-83
2022/06/13 08:25:33;;;;;;;27.65;5.80;;;16.20;99.90;;;;;;4954326;28;20035;-84
2022/06/13 08:28:00;;;;;;;15.75;3.70;;;16.20;99.90;;;;;;4957654;28;20023;-83
2022/06/13 08:30:37;;;;;;;21.20;4.13;;;16.10;99.90;;;;;;4954386;29;20038;-84
2022/06/13 08:33:03;;;;;;;32.90;4.95;;;16.10;99.90;;;;;;4945603;28;20020;-83
2022/06/13 08:35:29;;;;;;;21.45;4.40;;;16.00;99.90;;;;;;4941993;28;20118;-83
2022/06/13 08:37:57;;;;;;;25.08;3.60;;;15.90;99.90;;;;;;4953241;29;20551;-84
2022/06/13 08:40:49;;;;;;;21.20;4.22;;;15.70;99.90;;;;;;4957515;28;20135;-84
2022/06/13 08:43:33;;;;;;;17.75;3.80;;;15.50;99.90;;;;;;4955281;29;20031;-84
2022/06/13 08:46:16;;;;;;;18.52;4.15;;;15.30;99.90;;;;;;4964171;28;20105;-83
2022/06/13 08:48:44;;;;;;;17.67;4.05;;;15.20;99.90;;;;;;4956824;28;20554;-82
2022/06/13 08:51:23;;;;;;;16.88;3.75;;;15.00;99.90;;;;;;4967717;28;20025;-82
2022/06/13 08:53:53;;;;;;;22.08;5.07;;;14.80;99.90;;;;;;4941899;28;20031;-82
2022/06/13 08:56:22;;;;;;;8.88;3.35;;;14.60;99.90;;;;;;4958438;28;20059;-82
2022/06/13 08:59:42;;;;;;;18.42;5.45;;;14.40;99.90;;;;;;4955081;28;20031;-83
2022/06/13 09:02:48;;;;;;;7.93;3.50;;;14.30;99.90;;;;;;4961499;28;20046;-83
2022/06/13 09:05:33;;;;;;;11.07;3.58;;;14.30;99.90;;;;;;4967336;28;20498;-84
2022/06/13 09:08:09;;;;;;;15.60;3.67;;;14.40;99.90;;;;;;4967370;28;20038;-83
2022/06/13 09:10:47;;;;;;;14.43;4.15;;;14.50;99.90;;;;;;4956403;28;20165;-83
2022/06/13 09:13:36;;;;;;;10.27;3.15;;;14.50;99.90;;;;;;4956135;28;20023;-83
2022/06/13 09:16:11;;;;;;;11.32;3.53;;;14.50;99.90;;;;;;4937769;29;20038;-84
2022/06/13 09:18:55;;;;;;;8.02;3.83;;;14.60;99.90;;;;;;4935561;29;20392;-83
2022/06/13 09:21:34;;;;;;;11.45;3.70;;;14.70;99.90;;;;;;4945378;29;20043;-84
2022/06/13 09:24:16;;;;;;;13.60;4.03;;;14.80;99.90;;;;;;4942384;28;20352;-83
2022/06/13 09:27:08;;;;;;;9.23;3.10;;;14.80;99.90;;;;;;4969872;28;20058;-83
2022/06/13 09:29:45;;;;;;;14.23;3.10;;;15.00;99.90;;;;;;4930317;29;20106;-83
2022/06/13 09:32:20;;;;;;;8.45;2.80;;;15.00;99.90;;;;;;4956341;28;20118;-84
2022/06/13 09:34:49;;;;;;;7.93;2.20;;;15.00;99.90;;;;;;4941341;29;20032;-84
2022/06/13 09:37:48;;;;;;;24.95;3.40;;;15.10;99.90;;;;;;4973978;28;20031;-83
2022/06/13 09:40:16;;;;;;;17.85;3.65;;;15.10;99.90;;;;;;4910713;28;20127;-84
2022/06/13 09:42:44;;;;;;;8.48;2.92;;;15.20;99.90;;;;;;4955364;28;20023;-83
2022/06/13 09:45:19;;;;;;;11.07;3.22;;;15.30;99.90;;;;;;4960063;29;20023;-84
2022/06/13 09:47:49;;;;;;;;;;;15.40;99.90;;;;;;4961418;28;20047;-83
2022/06/13 09:50:35;;;;;;;13.52;3.30;;;15.60;99.90;;;;;;4958978;29;19953;-83
2022/06/13 09:53:30;;;;;;;9.17;2.47;;;15.80;99.90;;;;;;4941392;29;20082;-83
2022/06/13 09:56:14;;;;;;;4.82;1.98;;;15.90;99.90;;;;;;4950058;29;20121;-83
2022/06/13 09:59:05;;;;;;;9.13;2.63;;;16.10;99.90;;;;;;4960692;29;20027;-84
2022/06/13 10:01:36;;;;;;;12.63;3.47;;;16.20;99.90;;;;;;4949584;29;20477;-83
2022/06/13 10:04:14;;;;;;;10.57;2.58;;;16.40;99.90;;;;;;4944989;28;20123;-83
2022/06/13 10:06:50;;;;;;;7.95;2.80;;;16.50;99.90;;;;;;4971905;28;20035;-83
2022/06/13 10:09:43;;;;;;;10.63;2.30;;;16.60;99.90;;;;;;4961345;28;20031;-84
2022/06/13 10:12:37;;;;;;;7.22;2.15;;;16.70;99.90;;;;;;4961083;28;20023;-83
2022/06/13 10:15:32;;;;;;;10.05;2.58;;;16.80;99.90;;;;;;4972603;28;20022;-83
2022/06/13 10:18:15;;;;;;;12.48;2.65;;;16.80;99.90;;;;;;4949515;28;20106;-84
2022/06/13 10:21:09;;;;;;;11.32;2.80;;;17.00;99.90;;;;;;4940254;29;20047;-84
2022/06/13 10:24:04;;;;;;;14.27;2.80;;;17.10;99.90;;;;;;4969691;28;20502;-83
2022/06/13 10:26:50;;;;;;;10.43;2.63;;;17.30;99.90;;;;;;4955604;28;20027;-84
2022/06/13 10:29:50;;;;;;;14.52;2.47;;;17.40;99.90;;;;;;4963484;28;20098;-83
2022/06/13 10:32:43;;;;;;;6.60;2.40;;;17.40;99.90;;;;;;4978663;28;20367;-84
2022/06/13 10:35:31;;;;;;;7.80;2.00;;;17.50;99.90;;;;;;4969228;28;20031;-84
2022/06/13 10:38:37;;;;;;;9.55;2.25;;;17.50;99.90;;;;;;4948670;28;20083;-84
2022/06/13 10:41:03;;;;;;;12.65;2.05;;;17.60;99.90;;;;;;4952181;29;20506;-83
2022/06/13 10:43:31;;;;;;;8.73;2.25;;;17.70;99.90;;;;;;4938402;29;20046;-84
2022/06/13 10:45:57;;;;;;;8.48;2.15;;;17.80;99.90;;;;;;4965885;28;20023;-83
2022/06/13 10:49:11;;;;;;;7.80;2.15;;;18.10;99.90;;;;;;4960084;28;20383;-84
2022/06/13 10:51:40;;;;;;;9.40;2.03;;;18.30;99.90;;;;;;4936437;29;20074;-84
2022/06/13 10:54:38;;;;;;;8.65;2.03;;;18.40;99.90;;;;;;4940437;28;20035;-84
2022/06/13 10:57:08;;;;;;;6.75;1.65;;;18.40;99.90;;;;;;4945396;28;20093;-83
2022/06/13 10:59:36;;;;;;;6.15;2.03;;;18.40;99.70;;;;;;4943872;28;20437;-84
2022/06/13 11:02:05;;;;;;;5.60;1.63;;;18.40;99.90;;;;;;4942919;28;20047;-83
2022/06/13 11:04:37;;;;;;;9.27;2.15;;;18.60;99.30;;;;;;4960503;28;20368;-83
2022/06/13 11:07:17;;;;;;;6.47;2.15;;;18.60;99.30;;;;;;4938649;28;20387;-83
2022/06/13 11:09:49;;;;;;;8.13;1.98;;;18.70;96.90;;;;;;4942142;29;20117;-83
2022/06/13 11:12:24;;;;;;;6.40;2.25;;;18.80;92.50;;;;;;4957141;28;20073;-83
2022/06/13 11:23:38;;;;;;;5.63;1.80;;;18.80;92.90;;;;;;4942727;28;20050;-83
2022/06/13 11:27:39;;;;;;;8.02;1.65;;;18.90;89.90;;;;;;4957219;28;20467;-84
2022/06/13 11:28:51;;;;;;;5.63;1.88;;;18.90;79.90;;;;;;4954688;28;20034;-83
2022/06/13 11:31:23;;;;;;;5.60;1.70;;;18.80;78.10;;;;;;4957808;28;20027;-83
2022/06/13 11:33:49;;;;;;;9.18;2.53;;;18.80;95.20;;;;;;4952020;28;20110;-84
2022/06/13 11:36:14;;;;;;;5.47;1.73;;;18.80;93.10;;;;;;4971307;28;20034;-83
2022/06/13 11:39:07;;;;;;;9.90;1.73;;;18.80;90.70;;;;;;4941706;29;20023;-84
2022/06/13 11:41:39;;;;;;;6.15;1.90;;;18.80;90.70;;;;;;4936537;28;20075;-84
2022/06/13 11:44:18;;;;;;;5.57;1.88;;;18.80;82.70;;;;;;4957882;28;20033;-83
2022/06/13 11:46:54;;;;;;;8.48;2.33;;;18.70;85.00;;;;;;4935559;29;20038;-83
2022/06/13 11:49:32;;;;;;;4.63;1.90;;;18.50;92.40;;;;;;4970752;28;20510;-83
2022/06/13 11:52:10;;;;;;;11.15;2.28;;;18.50;95.40;;;;;;4959950;28;20023;-84
2022/06/13 11:54:40;;;;;;;4.35;1.63;;;18.60;97.20;;;;;;4962539;28;20089;-84
2022/06/13 11:57:17;;;;;;;8.55;1.83;;;18.70;96.40;;;;;;4954910;29;20093;-83
2022/06/13 12:00:02;;;;;;;11.05;2.13;;;18.70;95.20;;;;;;4937666;29;20022;-84
2022/06/13 12:02:42;;;;;;;5.20;1.95;;;18.70;94.30;;;;;;4955496;28;20094;-84
2022/06/13 12:05:15;;;;;;;8.15;2.42;;;18.60;94.60;;;;;;4937669;29;20487;-84
2022/06/13 12:07:49;;;;;;;8.27;2.22;;;18.70;91.30;;;;;;4938304;29;20073;-83
2022/06/13 12:10:20;;;;;;;7.53;2.45;;;18.70;88.90;;;;;;4970510;28;20041;-83
2022/06/13 12:12:46;;;;;;;9.13;2.58;;;18.70;87.50;;;;;;4955527;29;20507;-84
2022/06/13 12:15:14;;;;;;;11.07;2.22;;;18.70;85.60;;;;;;4937608;29;20083;-85
2022/06/13 12:17:52;;;;;;;8.82;2.10;;;18.70;76.90;;;;;;4952360;29;20479;-84
2022/06/13 12:20:32;;;;;;;10.50;2.05;;;18.70;76.90;;;;;;4947176;28;20035;-85
2022/06/13 12:23:11;;;;;;;17.98;2.10;;;18.60;87.90;;;;;;4936426;29;20038;-84
2022/06/13 12:25:50;;;;;;;16.60;3.08;;;18.40;99.90;;;;;;4950579;28;20379;-85
2022/06/13 12:28:21;;;;;;;11.70;2.35;;;18.10;99.90;;;;;;4920047;29;20032;-85
2022/06/13 12:31:18;;;;;;;9.77;2.97;;;17.80;99.90;;;;;;4935944;29;20106;-83
2022/06/13 12:34:30;;;;;;;9.80;2.50;;;17.50;99.90;;;;;;4951106;29;20455;-85
2022/06/13 12:37:17;;;;;;;7.40;2.17;;;17.20;99.90;;;;;;4946645;29;20440;-84
2022/06/13 12:40:31;;;;;;;8.52;2.40;;;17.00;99.90;;;;;;4974182;28;20449;-84
2022/06/13 12:43:41;;;;;;;13.82;2.42;;;16.90;99.90;;;;;;4880939;29;20114;-85
2022/06/13 12:46:45;;;;;;;14.18;2.53;;;16.80;99.90;;;;;;4945667;28;20110;-84
2022/06/13 12:49:47;;;;;;;10.52;2.83;;;16.60;99.90;;;;;;4908883;29;20043;-84
2022/06/13 12:52:37;;;;;;;7.15;2.63;;;16.50;99.90;;;;;;4937672;29;20054;-84
2022/06/13 12:55:53;;;;;;;11.90;2.40;;;16.40;99.90;;;;;;4954544;29;20034;-84
2022/06/13 12:58:40;;;;;;;6.10;2.40;;;16.40;99.90;;;;;;4955963;28;20038;-85
2022/06/13 13:01:11;;;;;;;11.38;2.55;;;16.30;99.90;;;;;;4948849;28;20035;-84
2022/06/13 13:04:28;;;;;;;7.18;2.58;;;16.30;99.90;;;;;;4955625;28;20411;-84
2022/06/13 13:07:05;;;;;;;11.02;2.50;;;16.30;99.90;;;;;;4915202;28;20466;-84
2022/06/13 13:09:48;;;;;;;9.45;1.98;;;16.30;99.90;;;;;;4942002;28;20046;-83
2022/06/13 13:12:42;;;;;;;13.65;1.85;;;16.40;99.90;;;;;;4951752;28;20118;-84
2022/06/13 13:15:53;;;;;;;7.90;1.50;;;16.40;99.90;;;;;;4964189;28;20076;-84
2022/06/13 13:18:59;;;;;;;11.02;2.10;;;16.30;99.90;;;;;;4954583;29;20399;-84
2022/06/13 13:22:02;;;;;;;8.82;2.25;;;16.10;99.90;;;;;;4968598;28;20062;-85
2022/06/13 13:24:33;;;;;;;3.10;1.30;;;16.20;99.90;;;;;;4922964;29;20477;-85
2022/06/13 13:27:11;;;;;;;8.35;2.22;;;16.40;99.90;;;;;;4962299;28;20472;-84
2022/06/13 13:30:00;;;;;;;5.35;1.95;;;16.60;99.90;;;;;;4947909;29;20029;-85
2022/06/13 13:33:04;;;;;;;8.07;2.10;;;16.60;99.90;;;;;;4954635;29;20062;-84
2022/06/13 13:35:53;;;;;;;8.40;2.17;;;16.40;99.90;;;;;;4932324;29;20031;-83
2022/06/13 13:38:31;;;;;;;5.68;1.85;;;16.20;99.90;;;;;;4937079;29;20031;-83
2022/06/13 13:41:09;;;;;;;6.68;1.83;;;16.10;99.90;;;;;;4954392;28;20035;-84
2022/06/13 13:43:52;;;;;;;9.75;2.28;;;16.00;99.90;;;;;;4957975;28;20027;-83
2022/06/13 13:46:20;;;;;;;10.77;2.40;;;15.90;99.90;;;;;;4946830;28;20049;-84
2022/06/13 13:49:01;;;;;;;11.07;2.67;;;15.80;99.90;;;;;;4935323;29;20781;-83
2022/06/13 13:51:35;;;;;;;6.78;2.00;;;15.90;99.90;;;;;;4927600;29;20035;-84
2022/06/13 13:54:21;;;;;;;11.02;2.60;;;16.00;99.90;;;;;;4941520;28;20074;-85
2022/06/13 13:56:54;;;;;;;6.25;1.70;;;16.20;99.90;;;;;;4940725;28;20031;-84
2022/06/13 13:59:46;;;;;;;5.00;2.03;;;16.40;99.90;;;;;;4943420;28;20032;-84
2022/06/13 14:02:34;;;;;;;4.90;1.70;;;16.60;99.90;;;;;;4950857;28;20074;-84
2022/06/13 14:05:43;;;;;;;7.20;2.25;;;16.70;99.90;;;;;;4971687;28;20058;-84
2022/06/13 14:08:25;;;;;;;6.07;1.73;;;16.70;99.90;;;;;;4947440;28;20450;-83
2022/06/13 14:10:57;;;;;;;7.60;2.17;;;16.70;99.90;;;;;;4956487;28;20027;-83
2022/06/13 14:13:32;;;;;;;7.55;2.17;;;16.80;99.90;;;;;;4962944;28;20086;-84
2022/06/13 14:16:36;;;;;;;6.93;1.83;;;16.80;99.90;;;;;;4965707;28;20038;-84
2022/06/13 14:19:31;;;;;;;8.30;2.25;;;16.80;99.90;;;;;;4937584;29;20027;-85
2022/06/13 14:22:16;;;;;;;9.70;2.03;;;16.80;99.90;;;;;;4957522;28;20031;-83
2022/06/13 14:25:07;;;;;;;5.22;1.70;;;16.80;99.90;;;;;;4938685;29;20032;-84
2022/06/13 14:27:54;;;;;;;8.18;1.80;;;16.80;99.90;;;;;;4939860;29;20067;-83
2022/06/13 14:36:54;;;;;;;11.00;2.17;;;16.70;99.90;;;;;;4957692;29;20106;-84
2022/06/13 14:39:22;;;;;;;6.82;1.48;;;16.70;99.90;;;;;;4965803;28;20494;-85
2022/06/13 14:41:50;;;;;;;6.53;1.85;;;16.80;99.90;;;;;;4926085;29;20038;-84